sensor_id;sensor_type;location;lat;lon;timestamp;temperature;humidity
6988;DHT22;3534;49.960;8.018;2022-12-22T00:00:18;9.20;99.90
6988;DHT22;3534;49.960;8.018;2022-12-22T00:03:10;9.20;99.90
6988;DHT22;3534;49.960;8.018;2022-12-22T00:05:55;9.20;99.90
6988;DHT22;3534;49.960;8.018;2022-12-22T00:08:39;9.30;99.90
6988;DHT22;3534;49.960;8.018;2022-12-22T00:11:25;9.30;99.90
6988;DHT22;3534;49.960;8.018;2022-12-22T00:14:10;9.30;99.90
6988;DHT22;3534;49.960;8.018;2022-12-22T00:17:01;9.30;99.90
6988;DHT22;3534;49.960;8.018;2022-12-22T00:19:46;9.30;99.90
6988;DHT22;3534;49.960;8.018;2022-12-22T00:22:30;9.30;99.90
6988;DHT22;3534;49.960;8.018;2022-12-22T00:25:15;9.30;99.90
6988;DHT22;3534;49.960;8.018;2022-12-22T00:28:02;9.30;99.90
6988;DHT22;3534;49.960;8.018;2022-12-22T00:30:48;9.30;99.90
6988;DHT22;3534;49.960;8.018;2022-12-22T00:33:32;9.30;99.90
6988;DHT22;3534;49.960;8.018;2022-12-22T00:36:17;9.20;99.90
6988;DHT22;3534;49.960;8.018;2022-12-22T00:39:09;9.20;99.90
6988;DHT22;3534;49.960;8.018;2022-12-22T00:41:54;9.20;99.90
6988;DHT22;3534;49.960;8.018;2022-12-22T00:44:40;9.20;99.90
6988;DHT22;3534;49.960;8.018;2022-12-22T00:47:25;9.20;99.90
6988;DHT22;3534;49.960;8.018;2022-12-22T00:50:10;9.20;99.90
6988;DHT22;3534;49.960;8.018;2022-12-22T00:52:55;9.20;99.90
6988;DHT22;3534;49.960;8.018;2022-12-22T00:55:40;9.20;99.90
6988;DHT22;3534;49.960;8.018;2022-12-22T00:58:24;9.20;99.90
6988;DHT22;3534;49.960;8.018;2022-12-22T01:01:11;9.20;99.90
6988;DHT22;3534;49.960;8.018;2022-12-22T01:03:55;9.20;99.90
6988;DHT22;3534;49.960;8.018;2022-12-22T01:06:39;9.20;99.90
6988;DHT22;3534;49.960;8.018;2022-12-22T01:09:24;9.20;99.90
6988;DHT22;3534;49.960;8.018;2022-12-22T01:12:11;9.20;99.90
6988;DHT22;3534;49.960;8.018;2022-12-22T01:14:57;9.20;99.90
6988;DHT22;3534;49.960;8.018;2022-12-22T01:17:42;9.20;99.90
6988;DHT22;3534;49.960;8.018;2022-12-22T01:20:27;9.20;99.90
6988;DHT22;3534;49.960;8.018;2022-12-22T01:23:11;9.20;99.90
6988;DHT22;3534;49.960;8.018;2022-12-22T01:25:55;9.30;99.90
6988;DHT22;3534;49.960;8.018;2022-12-22T01:28:39;9.20;99.90
6988;DHT22;3534;49.960;8.018;2022-12-22T01:31:27;9.30;99.90
6988;DHT22;3534;49.960;8.018;2022-12-22T01:34:12;9.30;99.90
6988;DHT22;3534;49.960;8.018;2022-12-22T01:36:57;9.30;99.90
6988;DHT22;3534;49.960;8.018;2022-12-22T01:39:41;9.30;99.90
6988;DHT22;3534;49.960;8.018;2022-12-22T01:42:25;9.30;99.90
6988;DHT22;3534;49.960;8.018;2022-12-22T01:45:20;9.30;99.90
6988;DHT22;3534;49.960;8.018;2022-12-22T01:48:09;9.30;99.90
6988;DHT22;3534;49.960;8.018;2022-12-22T01:50:55;9.30;99.90
6988;DHT22;3534;49.960;8.018;2022-12-22T01:53:41;9.30;99.90
6988;DHT22;3534;49.960;8.018;2022-12-22T01:56:25;9.30;99.90
6988;DHT22;3534;49.960;8.018;2022-12-22T01:59:09;9.40;99.90
6988;DHT22;3534;49.960;8.018;2022-12-22T02:01:54;9.40;99.90
6988;DHT22;3534;49.960;8.018;2022-12-22T02:04:42;9.40;99.90
6988;DHT22;3534;49.960;8.018;2022-12-22T02:07:40;9.40;99.90
6988;DHT22;3534;49.960;8.018;2022-12-22T02:10:44;9.40;99.90
6988;DHT22;3534;49.960;8.018;2022-12-22T02:13:41;9.40;99.90
6988;DHT22;3534;49.960;8.018;2022-12-22T02:16:33;9.40;99.90
6988;DHT22;3534;49.960;8.018;2022-12-22T02:19:28;9.40;99.90
6988;DHT22;3534;49.960;8.018;2022-12-22T02:22:20;9.50;99.90
6988;DHT22;3534;49.960;8.018;2022-12-22T02:25:13;9.50;99.90
6988;DHT22;3534;49.960;8.018;2022-12-22T02:28:00;9.40;99.90
6988;DHT22;3534;49.960;8.018;2022-12-22T02:30:45;9.40;99.90
6988;DHT22;3534;49.960;8.018;2022-12-22T02:33:31;9.50;99.90
6988;DHT22;3534;49.960;8.018;2022-12-22T02:36:18;9.50;99.90
6988;DHT22;3534;49.960;8.018;2022-12-22T02:39:11;9.40;99.90
6988;DHT22;3534;49.960;8.018;2022-12-22T02:42:04;9.50;99.90
6988;DHT22;3534;49.960;8.018;2022-12-22T02:45:02;9.50;99.90
6988;DHT22;3534;49.960;8.018;2022-12-22T02:47:58;9.50;99.90
6988;DHT22;3534;49.960;8.018;2022-12-22T02:50:50;9.40;99.90
6988;DHT22;3534;49.960;8.018;2022-12-22T02:53:36;9.40;99.90
6988;DHT22;3534;49.960;8.018;2022-12-22T02:56:22;9.40;99.90
6988;DHT22;3534;49.960;8.018;2022-12-22T02:59:06;9.30;99.90
6988;DHT22;3534;49.960;8.018;2022-12-22T03:01:52;9.20;99.90
6988;DHT22;3534;49.960;8.018;2022-12-22T03:04:36;9.10;99.90
6988;DHT22;3534;49.960;8.018;2022-12-22T03:07:20;9.10;99.90
6988;DHT22;3534;49.960;8.018;2022-12-22T03:10:05;9.10;99.90
6988;DHT22;3534;49.960;8.018;2022-12-22T03:12:50;9.00;99.90
6988;DHT22;3534;49.960;8.018;2022-12-22T03:15:34;9.00;99.90
6988;DHT22;3534;49.960;8.018;2022-12-22T03:18:19;9.10;99.90
6988;DHT22;3534;49.960;8.018;2022-12-22T03:21:03;9.10;99.90
6988;DHT22;3534;49.960;8.018;2022-12-22T03:23:48;9.20;99.90
6988;DHT22;3534;49.960;8.018;2022-12-22T03:26:32;9.20;99.90
6988;DHT22;3534;49.960;8.018;2022-12-22T03:28:58;9.20;99.90
6988;DHT22;3534;49.960;8.018;2022-12-22T03:31:25;9.20;99.90
6988;DHT22;3534;49.960;8.018;2022-12-22T03:33:53;9.20;99.90
6988;DHT22;3534;49.960;8.018;2022-12-22T03:36:20;9.20;99.90
6988;DHT22;3534;49.960;8.018;2022-12-22T03:38:46;9.30;99.90
6988;DHT22;3534;49.960;8.018;2022-12-22T03:41:13;9.20;99.90
6988;DHT22;3534;49.960;8.018;2022-12-22T03:43:54;9.20;99.90
6988;DHT22;3534;49.960;8.018;2022-12-22T03:46:38;9.30;99.90
6988;DHT22;3534;49.960;8.018;2022-12-22T03:49:06;9.30;99.90
6988;DHT22;3534;49.960;8.018;2022-12-22T03:51:38;9.40;99.90
6988;DHT22;3534;49.960;8.018;2022-12-22T03:54:05;9.60;99.90
6988;DHT22;3534;49.960;8.018;2022-12-22T03:56:32;9.70;99.90
6988;DHT22;3534;49.960;8.018;2022-12-22T03:58:59;9.90;99.90
6988;DHT22;3534;49.960;8.018;2022-12-22T04:01:26;9.90;99.90
6988;DHT22;3534;49.960;8.018;2022-12-22T04:03:52;10.00;99.90
6988;DHT22;3534;49.960;8.018;2022-12-22T04:06:20;10.10;99.90
6988;DHT22;3534;49.960;8.018;2022-12-22T04:08:47;10.20;99.90
6988;DHT22;3534;49.960;8.018;2022-12-22T04:11:15;10.20;99.90
6988;DHT22;3534;49.960;8.018;2022-12-22T04:13:59;10.30;99.90
6988;DHT22;3534;49.960;8.018;2022-12-22T04:16:28;10.40;99.90
6988;DHT22;3534;49.960;8.018;2022-12-22T04:18:55;10.40;99.90
6988;DHT22;3534;49.960;8.018;2022-12-22T04:21:23;10.40;99.90
6988;DHT22;3534;49.960;8.018;2022-12-22T04:23:50;10.40;99.90
6988;DHT22;3534;49.960;8.018;2022-12-22T04:26:17;10.40;99.90
6988;DHT22;3534;49.960;8.018;2022-12-22T04:28:44;10.50;99.90
6988;DHT22;3534;49.960;8.018;2022-12-22T04:31:10;10.50;99.90
6988;DHT22;3534;49.960;8.018;2022-12-22T04:33:37;10.50;99.90
6988;DHT22;3534;49.960;8.018;2022-12-22T04:36:05;10.50;99.90
6988;DHT22;3534;49.960;8.018;2022-12-22T04:38:33;10.50;99.90
6988;DHT22;3534;49.960;8.018;2022-12-22T04:41:00;10.60;99.90
6988;DHT22;3534;49.960;8.018;2022-12-22T04:43:26;10.60;99.90
6988;DHT22;3534;49.960;8.018;2022-12-22T04:45:53;10.60;99.90
6988;DHT22;3534;49.960;8.018;2022-12-22T04:48:22;10.60;99.90
6988;DHT22;3534;49.960;8.018;2022-12-22T04:50:49;10.70;99.90
6988;DHT22;3534;49.960;8.018;2022-12-22T04:53:16;10.70;99.90
6988;DHT22;3534;49.960;8.018;2022-12-22T04:55:45;10.70;99.90
6988;DHT22;3534;49.960;8.018;2022-12-22T04:58:12;10.70;99.90
6988;DHT22;3534;49.960;8.018;2022-12-22T05:00:39;10.70;99.90
6988;DHT22;3534;49.960;8.018;2022-12-22T05:03:06;10.70;99.90
6988;DHT22;3534;49.960;8.018;2022-12-22T05:05:32;10.70;99.90
6988;DHT22;3534;49.960;8.018;2022-12-22T05:07:59;10.70;99.90
6988;DHT22;3534;49.960;8.018;2022-12-22T05:10:26;10.80;99.90
6988;DHT22;3534;49.960;8.018;2022-12-22T05:12:54;10.80;99.90
6988;DHT22;3534;49.960;8.018;2022-12-22T05:15:21;10.80;99.90
6988;DHT22;3534;49.960;8.018;2022-12-22T05:17:47;10.80;99.90
6988;DHT22;3534;49.960;8.018;2022-12-22T05:20:15;10.80;99.90
6988;DHT22;3534;49.960;8.018;2022-12-22T05:22:42;10.80;99.90
6988;DHT22;3534;49.960;8.018;2022-12-22T05:25:09;10.80;99.90
6988;DHT22;3534;49.960;8.018;2022-12-22T05:27:36;10.80;99.90
6988;DHT22;3534;49.960;8.018;2022-12-22T05:30:05;10.90;99.90
6988;DHT22;3534;49.960;8.018;2022-12-22T05:32:32;10.90;99.90
6988;DHT22;3534;49.960;8.018;2022-12-22T05:34:59;10.90;99.90
6988;DHT22;3534;49.960;8.018;2022-12-22T05:37:25;10.90;99.90
6988;DHT22;3534;49.960;8.018;2022-12-22T05:39:52;10.90;99.90
6988;DHT22;3534;49.960;8.018;2022-12-22T05:42:19;10.90;99.90
6988;DHT22;3534;49.960;8.018;2022-12-22T05:45:07;11.00;99.90
6988;DHT22;3534;49.960;8.018;2022-12-22T05:47:35;11.00;99.90
6988;DHT22;3534;49.960;8.018;2022-12-22T05:50:01;11.00;99.90
6988;DHT22;3534;49.960;8.018;2022-12-22T05:52:28;11.00;99.90
6988;DHT22;3534;49.960;8.018;2022-12-22T05:54:55;11.10;99.90
6988;DHT22;3534;49.960;8.018;2022-12-22T05:57:22;11.10;99.90
6988;DHT22;3534;49.960;8.018;2022-12-22T05:59:48;11.10;99.90
6988;DHT22;3534;49.960;8.018;2022-12-22T06:02:16;11.10;99.90
6988;DHT22;3534;49.960;8.018;2022-12-22T06:04:43;11.10;99.90
6988;DHT22;3534;49.960;8.018;2022-12-22T06:07:10;11.20;99.90
6988;DHT22;3534;49.960;8.018;2022-12-22T06:09:36;11.20;99.90
6988;DHT22;3534;49.960;8.018;2022-12-22T06:12:04;11.20;99.90
6988;DHT22;3534;49.960;8.018;2022-12-22T06:14:31;11.20;99.90
6988;DHT22;3534;49.960;8.018;2022-12-22T06:16:58;11.30;99.90
6988;DHT22;3534;49.960;8.018;2022-12-22T06:19:25;11.20;99.90
6988;DHT22;3534;49.960;8.018;2022-12-22T06:21:52;11.30;99.90
6988;DHT22;3534;49.960;8.018;2022-12-22T06:24:19;11.30;99.90
6988;DHT22;3534;49.960;8.018;2022-12-22T06:26:45;11.30;99.90
6988;DHT22;3534;49.960;8.018;2022-12-22T06:29:12;11.30;99.90
6988;DHT22;3534;49.960;8.018;2022-12-22T06:31:39;11.30;99.90
6988;DHT22;3534;49.960;8.018;2022-12-22T06:34:05;11.30;99.90
6988;DHT22;3534;49.960;8.018;2022-12-22T06:36:33;11.30;99.90
6988;DHT22;3534;49.960;8.018;2022-12-22T06:39:00;11.30;99.90
6988;DHT22;3534;49.960;8.018;2022-12-22T06:41:26;11.40;99.90
6988;DHT22;3534;49.960;8.018;2022-12-22T06:44:11;11.40;99.90
6988;DHT22;3534;49.960;8.018;2022-12-22T06:46:37;11.40;99.90
6988;DHT22;3534;49.960;8.018;2022-12-22T06:49:04;11.50;99.90
6988;DHT22;3534;49.960;8.018;2022-12-22T06:51:32;11.50;99.90
6988;DHT22;3534;49.960;8.018;2022-12-22T06:53:59;11.50;99.90
6988;DHT22;3534;49.960;8.018;2022-12-22T06:56:25;11.60;99.90
6988;DHT22;3534;49.960;8.018;2022-12-22T06:58:52;11.50;99.90
6988;DHT22;3534;49.960;8.018;2022-12-22T07:01:18;11.50;99.90
6988;DHT22;3534;49.960;8.018;2022-12-22T07:03:45;11.60;99.90
6988;DHT22;3534;49.960;8.018;2022-12-22T07:06:12;11.60;99.90
6988;DHT22;3534;49.960;8.018;2022-12-22T07:08:40;11.60;99.90
6988;DHT22;3534;49.960;8.018;2022-12-22T07:11:06;11.60;99.90
6988;DHT22;3534;49.960;8.018;2022-12-22T07:13:34;11.60;99.90
6988;DHT22;3534;49.960;8.018;2022-12-22T07:16:01;11.60;99.90
6988;DHT22;3534;49.960;8.018;2022-12-22T07:18:29;11.60;99.90
6988;DHT22;3534;49.960;8.018;2022-12-22T07:20:56;11.60;99.90
6988;DHT22;3534;49.960;8.018;2022-12-22T07:23:24;11.70;99.90
6988;DHT22;3534;49.960;8.018;2022-12-22T07:25:52;11.70;99.90
6988;DHT22;3534;49.960;8.018;2022-12-22T07:28:18;11.70;99.90
6988;DHT22;3534;49.960;8.018;2022-12-22T07:30:45;11.70;99.90
6988;DHT22;3534;49.960;8.018;2022-12-22T07:33:12;11.60;99.90
6988;DHT22;3534;49.960;8.018;2022-12-22T07:35:38;11.60;99.90
6988;DHT22;3534;49.960;8.018;2022-12-22T07:38:05;11.60;99.90
6988;DHT22;3534;49.960;8.018;2022-12-22T07:40:32;11.60;99.90
6988;DHT22;3534;49.960;8.018;2022-12-22T07:43:00;11.60;99.90
6988;DHT22;3534;49.960;8.018;2022-12-22T07:45:27;11.60;99.90
6988;DHT22;3534;49.960;8.018;2022-12-22T07:47:57;11.60;99.90
6988;DHT22;3534;49.960;8.018;2022-12-22T07:50:24;11.60;99.90
6988;DHT22;3534;49.960;8.018;2022-12-22T07:52:50;11.60;99.90
6988;DHT22;3534;49.960;8.018;2022-12-22T07:55:18;11.60;99.90
6988;DHT22;3534;49.960;8.018;2022-12-22T07:57:45;11.60;99.90
6988;DHT22;3534;49.960;8.018;2022-12-22T08:00:14;11.60;99.90
6988;DHT22;3534;49.960;8.018;2022-12-22T08:02:41;11.60;99.90
6988;DHT22;3534;49.960;8.018;2022-12-22T08:05:08;11.60;99.90
6988;DHT22;3534;49.960;8.018;2022-12-22T08:07:35;11.60;99.90
6988;DHT22;3534;49.960;8.018;2022-12-22T08:10:02;11.60;99.90
6988;DHT22;3534;49.960;8.018;2022-12-22T08:12:28;11.60;99.90
6988;DHT22;3534;49.960;8.018;2022-12-22T08:14:56;11.60;99.90
6988;DHT22;3534;49.960;8.018;2022-12-22T08:17:26;11.60;99.90
6988;DHT22;3534;49.960;8.018;2022-12-22T08:19:53;11.60;99.90
6988;DHT22;3534;49.960;8.018;2022-12-22T08:22:20;11.60;99.90
6988;DHT22;3534;49.960;8.018;2022-12-22T08:24:48;11.60;99.90
6988;DHT22;3534;49.960;8.018;2022-12-22T08:27:17;11.60;99.90
6988;DHT22;3534;49.960;8.018;2022-12-22T08:29:46;11.60;99.90
6988;DHT22;3534;49.960;8.018;2022-12-22T08:32:14;11.60;99.90
6988;DHT22;3534;49.960;8.018;2022-12-22T08:34:42;11.60;99.90
6988;DHT22;3534;49.960;8.018;2022-12-22T08:37:13;11.60;99.90
6988;DHT22;3534;49.960;8.018;2022-12-22T08:39:42;11.60;99.90
6988;DHT22;3534;49.960;8.018;2022-12-22T08:42:12;11.60;99.90
6988;DHT22;3534;49.960;8.018;2022-12-22T08:44:40;11.60;99.90
6988;DHT22;3534;49.960;8.018;2022-12-22T08:47:08;11.60;99.90
6988;DHT22;3534;49.960;8.018;2022-12-22T08:49:35;11.60;99.90
6988;DHT22;3534;49.960;8.018;2022-12-22T08:52:03;11.50;99.90
6988;DHT22;3534;49.960;8.018;2022-12-22T08:59:33;11.50;99.90
6988;DHT22;3534;49.960;8.018;2022-12-22T09:02:00;11.50;99.90
6988;DHT22;3534;49.960;8.018;2022-12-22T09:04:30;11.50;99.90
6988;DHT22;3534;49.960;8.018;2022-12-22T09:06:57;11.50;99.90
6988;DHT22;3534;49.960;8.018;2022-12-22T09:09:30;11.50;99.90
6988;DHT22;3534;49.960;8.018;2022-12-22T09:11:57;11.50;99.90
6988;DHT22;3534;49.960;8.018;2022-12-22T09:14:24;11.50;99.90
6988;DHT22;3534;49.960;8.018;2022-12-22T09:16:51;11.50;99.90
6988;DHT22;3534;49.960;8.018;2022-12-22T09:19:17;11.50;99.90
6988;DHT22;3534;49.960;8.018;2022-12-22T09:21:44;11.50;99.90
6988;DHT22;3534;49.960;8.018;2022-12-22T09:24:11;11.60;99.90
6988;DHT22;3534;49.960;8.018;2022-12-22T09:26:39;11.60;99.90
6988;DHT22;3534;49.960;8.018;2022-12-22T09:29:07;11.60;99.90
6988;DHT22;3534;49.960;8.018;2022-12-22T09:31:34;11.60;99.90
6988;DHT22;3534;49.960;8.018;2022-12-22T09:34:01;11.60;99.90
6988;DHT22;3534;49.960;8.018;2022-12-22T09:36:30;11.60;99.90
6988;DHT22;3534;49.960;8.018;2022-12-22T09:38:58;11.50;99.90
6988;DHT22;3534;49.960;8.018;2022-12-22T09:41:27;11.50;99.90
6988;DHT22;3534;49.960;8.018;2022-12-22T09:44:01;11.50;99.90
6988;DHT22;3534;49.960;8.018;2022-12-22T09:46:29;11.50;99.90
6988;DHT22;3534;49.960;8.018;2022-12-22T09:48:57;11.50;99.90
6988;DHT22;3534;49.960;8.018;2022-12-22T09:51:24;11.50;99.90
6988;DHT22;3534;49.960;8.018;2022-12-22T09:53:53;11.60;99.90
6988;DHT22;3534;49.960;8.018;2022-12-22T09:56:21;11.50;99.90
6988;DHT22;3534;49.960;8.018;2022-12-22T09:58:49;11.50;99.90
6988;DHT22;3534;49.960;8.018;2022-12-22T10:01:31;11.50;99.90
6988;DHT22;3534;49.960;8.018;2022-12-22T10:04:03;11.50;99.90
6988;DHT22;3534;49.960;8.018;2022-12-22T10:06:35;11.50;99.90
6988;DHT22;3534;49.960;8.018;2022-12-22T10:09:10;11.50;99.90
6988;DHT22;3534;49.960;8.018;2022-12-22T10:11:49;11.50;99.90
6988;DHT22;3534;49.960;8.018;2022-12-22T10:14:15;11.60;99.90
6988;DHT22;3534;49.960;8.018;2022-12-22T10:16:43;11.60;99.90
6988;DHT22;3534;49.960;8.018;2022-12-22T10:19:12;11.60;99.90
6988;DHT22;3534;49.960;8.018;2022-12-22T10:21:40;11.60;99.90
6988;DHT22;3534;49.960;8.018;2022-12-22T10:24:21;11.60;99.90
6988;DHT22;3534;49.960;8.018;2022-12-22T10:26:54;11.60;99.90
6988;DHT22;3534;49.960;8.018;2022-12-22T10:29:21;11.70;99.90
6988;DHT22;3534;49.960;8.018;2022-12-22T10:31:58;11.70;99.90
6988;DHT22;3534;49.960;8.018;2022-12-22T10:34:26;11.70;99.90
6988;DHT22;3534;49.960;8.018;2022-12-22T10:36:56;11.70;99.90
6988;DHT22;3534;49.960;8.018;2022-12-22T10:39:25;11.70;99.90
6988;DHT22;3534;49.960;8.018;2022-12-22T10:41:55;11.70;99.90
6988;DHT22;3534;49.960;8.018;2022-12-22T10:44:28;11.70;99.90
6988;DHT22;3534;49.960;8.018;2022-12-22T10:46:57;11.70;99.90
6988;DHT22;3534;49.960;8.018;2022-12-22T10:49:27;11.70;99.90
6988;DHT22;3534;49.960;8.018;2022-12-22T10:51:56;11.80;99.90
6988;DHT22;3534;49.960;8.018;2022-12-22T10:54:35;11.70;99.90
6988;DHT22;3534;49.960;8.018;2022-12-22T10:57:05;11.80;99.90
6988;DHT22;3534;49.960;8.018;2022-12-22T10:59:32;11.80;99.90
6988;DHT22;3534;49.960;8.018;2022-12-22T11:02:26;11.80;99.90
6988;DHT22;3534;49.960;8.018;2022-12-22T11:05:00;11.80;99.90
6988;DHT22;3534;49.960;8.018;2022-12-22T11:07:28;11.90;99.90
6988;DHT22;3534;49.960;8.018;2022-12-22T11:09:55;11.90;99.90
6988;DHT22;3534;49.960;8.018;2022-12-22T11:12:26;11.90;99.90
6988;DHT22;3534;49.960;8.018;2022-12-22T11:15:02;11.90;99.90
6988;DHT22;3534;49.960;8.018;2022-12-22T11:17:38;11.90;99.90
6988;DHT22;3534;49.960;8.018;2022-12-22T11:20:26;11.90;99.90
6988;DHT22;3534;49.960;8.018;2022-12-22T11:23:00;11.90;99.90
6988;DHT22;3534;49.960;8.018;2022-12-22T11:25:35;11.90;99.90
6988;DHT22;3534;49.960;8.018;2022-12-22T11:28:16;11.90;99.90
6988;DHT22;3534;49.960;8.018;2022-12-22T11:30:53;11.90;99.90
6988;DHT22;3534;49.960;8.018;2022-12-22T11:33:34;11.90;99.90
6988;DHT22;3534;49.960;8.018;2022-12-22T11:36:12;11.90;99.90
6988;DHT22;3534;49.960;8.018;2022-12-22T11:38:46;11.90;99.90
6988;DHT22;3534;49.960;8.018;2022-12-22T11:41:27;11.90;99.90
6988;DHT22;3534;49.960;8.018;2022-12-22T11:44:13;11.90;99.90
6988;DHT22;3534;49.960;8.018;2022-12-22T11:46:48;11.90;99.90
6988;DHT22;3534;49.960;8.018;2022-12-22T11:49:33;11.90;99.90
6988;DHT22;3534;49.960;8.018;2022-12-22T11:52:12;11.90;99.90
6988;DHT22;3534;49.960;8.018;2022-12-22T11:55:03;11.80;99.90
6988;DHT22;3534;49.960;8.018;2022-12-22T11:57:41;11.80;99.90
6988;DHT22;3534;49.960;8.018;2022-12-22T12:00:10;11.80;99.90
6988;DHT22;3534;49.960;8.018;2022-12-22T12:03:10;11.80;99.90
6988;DHT22;3534;49.960;8.018;2022-12-22T12:08:49;11.80;99.90
6988;DHT22;3534;49.960;8.018;2022-12-22T12:11:28;11.80;99.90
6988;DHT22;3534;49.960;8.018;2022-12-22T12:14:03;11.80;99.90
6988;DHT22;3534;49.960;8.018;2022-12-22T12:16:36;11.80;99.90
6988;DHT22;3534;49.960;8.018;2022-12-22T12:22:31;11.80;99.90
6988;DHT22;3534;49.960;8.018;2022-12-22T12:25:02;11.80;99.90
6988;DHT22;3534;49.960;8.018;2022-12-22T12:27:47;11.80;99.90
6988;DHT22;3534;49.960;8.018;2022-12-22T12:30:17;11.80;99.90
6988;DHT22;3534;49.960;8.018;2022-12-22T12:32:47;11.80;99.90
6988;DHT22;3534;49.960;8.018;2022-12-22T12:35:33;11.80;99.90
6988;DHT22;3534;49.960;8.018;2022-12-22T12:38:09;11.80;99.90
6988;DHT22;3534;49.960;8.018;2022-12-22T12:40:44;11.80;99.90
6988;DHT22;3534;49.960;8.018;2022-12-22T12:43:12;11.90;99.90
6988;DHT22;3534;49.960;8.018;2022-12-22T12:45:41;11.80;99.90
6988;DHT22;3534;49.960;8.018;2022-12-22T12:48:38;11.80;99.90
6988;DHT22;3534;49.960;8.018;2022-12-22T12:59:55;11.80;99.90
6988;DHT22;3534;49.960;8.018;2022-12-22T13:02:31;11.80;99.90
6988;DHT22;3534;49.960;8.018;2022-12-22T13:08:06;11.80;99.90
6988;DHT22;3534;49.960;8.018;2022-12-22T13:10:39;11.80;99.90
6988;DHT22;3534;49.960;8.018;2022-12-22T13:13:09;11.80;99.90
6988;DHT22;3534;49.960;8.018;2022-12-22T13:15:38;11.80;99.90
6988;DHT22;3534;49.960;8.018;2022-12-22T13:18:10;11.80;99.90
6988;DHT22;3534;49.960;8.018;2022-12-22T13:20:58;11.80;99.90
6988;DHT22;3534;49.960;8.018;2022-12-22T13:23:27;11.80;99.90
6988;DHT22;3534;49.960;8.018;2022-12-22T13:25:58;11.80;99.90
6988;DHT22;3534;49.960;8.018;2022-12-22T13:28:26;11.80;99.90
6988;DHT22;3534;49.960;8.018;2022-12-22T13:30:58;11.80;99.90
6988;DHT22;3534;49.960;8.018;2022-12-22T13:33:28;11.80;99.90
6988;DHT22;3534;49.960;8.018;2022-12-22T13:35:56;11.80;99.90
6988;DHT22;3534;49.960;8.018;2022-12-22T13:38:28;11.80;99.90
6988;DHT22;3534;49.960;8.018;2022-12-22T13:40:57;11.80;99.90
6988;DHT22;3534;49.960;8.018;2022-12-22T13:43:26;11.80;99.90
6988;DHT22;3534;49.960;8.018;2022-12-22T13:45:54;11.80;99.90
6988;DHT22;3534;49.960;8.018;2022-12-22T13:48:26;11.80;99.90
6988;DHT22;3534;49.960;8.018;2022-12-22T13:50:56;11.80;99.90
6988;DHT22;3534;49.960;8.018;2022-12-22T13:53:29;11.80;99.90
6988;DHT22;3534;49.960;8.018;2022-12-22T13:55:58;11.90;99.90
6988;DHT22;3534;49.960;8.018;2022-12-22T13:58:26;11.90;99.90
6988;DHT22;3534;49.960;8.018;2022-12-22T14:01:01;11.80;99.90
6988;DHT22;3534;49.960;8.018;2022-12-22T14:03:28;11.80;99.90
6988;DHT22;3534;49.960;8.018;2022-12-22T14:05:55;11.80;99.90
6988;DHT22;3534;49.960;8.018;2022-12-22T14:08:22;11.80;99.90
6988;DHT22;3534;49.960;8.018;2022-12-22T14:10:50;11.80;99.90
6988;DHT22;3534;49.960;8.018;2022-12-22T14:13:21;11.80;99.90
6988;DHT22;3534;49.960;8.018;2022-12-22T14:15:58;11.80;99.90
6988;DHT22;3534;49.960;8.018;2022-12-22T14:18:26;11.80;99.90
6988;DHT22;3534;49.960;8.018;2022-12-22T14:20:53;11.80;99.90
6988;DHT22;3534;49.960;8.018;2022-12-22T14:23:23;11.70;99.90
6988;DHT22;3534;49.960;8.018;2022-12-22T14:25:51;11.70;99.90
6988;DHT22;3534;49.960;8.018;2022-12-22T14:28:22;11.80;99.90
6988;DHT22;3534;49.960;8.018;2022-12-22T14:30:52;11.80;99.90
6988;DHT22;3534;49.960;8.018;2022-12-22T14:33:30;11.80;99.90
6988;DHT22;3534;49.960;8.018;2022-12-22T14:36:05;11.80;99.90
6988;DHT22;3534;49.960;8.018;2022-12-22T14:38:38;11.80;99.90
6988;DHT22;3534;49.960;8.018;2022-12-22T14:41:09;11.80;99.90
6988;DHT22;3534;49.960;8.018;2022-12-22T14:43:59;11.80;99.90
6988;DHT22;3534;49.960;8.018;2022-12-22T14:46:26;11.80;99.90
6988;DHT22;3534;49.960;8.018;2022-12-22T14:48:53;11.80;99.90
6988;DHT22;3534;49.960;8.018;2022-12-22T14:51:20;11.70;99.90
6988;DHT22;3534;49.960;8.018;2022-12-22T14:53:49;11.70;99.90
6988;DHT22;3534;49.960;8.018;2022-12-22T14:56:17;11.70;99.90
6988;DHT22;3534;49.960;8.018;2022-12-22T14:58:47;11.70;99.90
6988;DHT22;3534;49.960;8.018;2022-12-22T15:01:18;11.70;99.90
6988;DHT22;3534;49.960;8.018;2022-12-22T15:03:57;11.60;99.90
6988;DHT22;3534;49.960;8.018;2022-12-22T15:06:33;11.60;99.90
6988;DHT22;3534;49.960;8.018;2022-12-22T15:09:25;11.60;99.90
6988;DHT22;3534;49.960;8.018;2022-12-22T15:11:56;11.60;99.90
6988;DHT22;3534;49.960;8.018;2022-12-22T15:14:30;11.60;99.90
6988;DHT22;3534;49.960;8.018;2022-12-22T15:16:59;11.60;99.90
6988;DHT22;3534;49.960;8.018;2022-12-22T15:19:28;11.60;99.90
6988;DHT22;3534;49.960;8.018;2022-12-22T15:21:55;11.60;99.90
6988;DHT22;3534;49.960;8.018;2022-12-22T15:24:22;11.60;99.90
6988;DHT22;3534;49.960;8.018;2022-12-22T15:26:49;11.60;99.90
6988;DHT22;3534;49.960;8.018;2022-12-22T15:29:15;11.60;99.90
6988;DHT22;3534;49.960;8.018;2022-12-22T15:31:43;11.60;99.90
6988;DHT22;3534;49.960;8.018;2022-12-22T15:34:13;11.60;99.90
6988;DHT22;3534;49.960;8.018;2022-12-22T15:36:41;11.60;99.90
6988;DHT22;3534;49.960;8.018;2022-12-22T15:39:13;11.60;99.90
6988;DHT22;3534;49.960;8.018;2022-12-22T15:41:40;11.60;99.90
6988;DHT22;3534;49.960;8.018;2022-12-22T15:44:07;11.60;99.90
6988;DHT22;3534;49.960;8.018;2022-12-22T15:46:33;11.50;99.90
6988;DHT22;3534;49.960;8.018;2022-12-22T15:49:01;11.50;99.90
6988;DHT22;3534;49.960;8.018;2022-12-22T15:51:30;11.50;99.90
6988;DHT22;3534;49.960;8.018;2022-12-22T15:53:58;11.50;99.90
6988;DHT22;3534;49.960;8.018;2022-12-22T15:56:26;11.50;99.90
6988;DHT22;3534;49.960;8.018;2022-12-22T15:58:55;11.50;99.90
6988;DHT22;3534;49.960;8.018;2022-12-22T16:01:22;11.50;99.90
6988;DHT22;3534;49.960;8.018;2022-12-22T16:03:49;11.50;99.90
6988;DHT22;3534;49.960;8.018;2022-12-22T16:06:16;11.50;99.90
6988;DHT22;3534;49.960;8.018;2022-12-22T16:08:48;11.50;99.90
6988;DHT22;3534;49.960;8.018;2022-12-22T16:11:17;11.50;99.90
6988;DHT22;3534;49.960;8.018;2022-12-22T16:13:44;11.50;99.90
6988;DHT22;3534;49.960;8.018;2022-12-22T16:16:11;11.50;99.90
6988;DHT22;3534;49.960;8.018;2022-12-22T16:18:38;11.50;99.90
6988;DHT22;3534;49.960;8.018;2022-12-22T16:21:07;11.50;99.90
6988;DHT22;3534;49.960;8.018;2022-12-22T16:23:36;11.50;99.90
6988;DHT22;3534;49.960;8.018;2022-12-22T16:26:05;11.40;99.90
6988;DHT22;3534;49.960;8.018;2022-12-22T16:28:32;11.40;99.90
6988;DHT22;3534;49.960;8.018;2022-12-22T16:30:59;11.40;99.90
6988;DHT22;3534;49.960;8.018;2022-12-22T16:33:26;11.40;99.90
6988;DHT22;3534;49.960;8.018;2022-12-22T16:35:53;11.40;99.90
6988;DHT22;3534;49.960;8.018;2022-12-22T16:38:20;11.50;99.90
6988;DHT22;3534;49.960;8.018;2022-12-22T16:40:48;11.50;99.90
6988;DHT22;3534;49.960;8.018;2022-12-22T16:43:20;11.40;99.90
6988;DHT22;3534;49.960;8.018;2022-12-22T16:45:48;11.40;99.90
6988;DHT22;3534;49.960;8.018;2022-12-22T16:48:20;11.40;99.90
6988;DHT22;3534;49.960;8.018;2022-12-22T16:50:50;11.50;99.90
6988;DHT22;3534;49.960;8.018;2022-12-22T16:53:16;11.40;99.90
6988;DHT22;3534;49.960;8.018;2022-12-22T16:55:43;11.40;99.90
6988;DHT22;3534;49.960;8.018;2022-12-22T16:58:10;11.40;99.90
6988;DHT22;3534;49.960;8.018;2022-12-22T17:00:39;11.40;99.90
6988;DHT22;3534;49.960;8.018;2022-12-22T17:03:12;11.30;99.90
6988;DHT22;3534;49.960;8.018;2022-12-22T17:05:42;11.30;99.90